Time;durP1;ratioP1;P1;durP2;ratioP2;P2;SDS_P1;SDS_P2;PMS_P1;PMS_P2;Temp;Humidity;BMP_temperature;BMP_pressure;BME280_temperature;BME280_humidity;BME280_pressure;Samples;Min_cycle;Max_cycle;Signal;HPM_P1;HPM_P2
2024/04/23 00:02:07;;;;;;;0.10;0.10;;;1.90;99.90;;;;;;5496206;26;20027;-76
2024/04/23 00:04:33;;;;;;;1.67;0.00;;;1.90;99.90;;;;;;5498957;26;20001;-76
2024/04/23 00:07:00;;;;;;;0.55;0.00;;;1.90;99.90;;;;;;5467374;26;20009;-76
2024/04/23 00:09:26;;;;;;;0.93;0.00;;;1.90;99.90;;;;;;5498759;26;20079;-76
2024/04/23 00:11:53;;;;;;;0.80;0.00;;;1.90;99.90;;;;;;5499258;26;20391;-76
2024/04/23 00:14:19;;;;;;;1.95;0.00;;;1.90;99.90;;;;;;5466692;26;20070;-76
2024/04/23 00:16:59;;;;;;;0.73;0.20;;;1.90;99.90;;;;;;5499324;26;20010;-76
2024/04/23 00:19:24;;;;;;;2.30;0.00;;;1.90;99.90;;;;;;5467334;26;19990;-76
2024/04/23 00:21:50;;;;;;;1.08;0.10;;;1.90;99.90;;;;;;5466975;26;20005;-76
2024/04/23 00:24:15;;;;;;;1.10;0.05;;;1.80;99.90;;;;;;5498690;26;20337;-76
2024/04/23 00:26:57;;;;;;;5.22;0.20;;;1.80;99.90;;;;;;5499545;26;20046;-76
2024/04/23 00:29:23;;;;;;;2.72;0.08;;;1.80;99.90;;;;;;5467689;26;19990;-76
2024/04/23 00:31:48;;;;;;;2.67;0.00;;;1.70;99.90;;;;;;5467067;26;19994;-76
2024/04/23 00:34:14;;;;;;;0.90;0.10;;;1.70;99.90;;;;;;5500211;26;20005;-76
2024/04/23 00:36:53;;;;;;;3.40;0.08;;;1.60;99.90;;;;;;5466862;26;19994;-76
2024/04/23 00:39:21;;;;;;;2.40;0.00;;;1.60;99.90;;;;;;5466199;26;20040;-76
2024/04/23 00:41:47;;;;;;;0.25;0.05;;;1.60;99.90;;;;;;5466693;26;20005;-76
2024/04/23 00:44:12;;;;;;;0.45;0.05;;;1.50;99.90;;;;;;5465589;26;20069;-76
2024/04/23 00:46:39;;;;;;;1.35;0.10;;;1.40;99.90;;;;;;5466302;26;20007;-77
2024/04/23 00:49:11;;;;;;;1.20;0.20;;;1.40;99.90;;;;;;5499734;26;20013;-76
2024/04/23 00:51:37;;;;;;;2.40;0.43;;;1.30;99.90;;;;;;5467538;26;20087;-76
2024/04/23 00:54:03;;;;;;;7.97;0.20;;;1.30;99.90;;;;;;5499658;26;20021;-76
2024/04/23 00:56:29;;;;;;;1.20;0.00;;;1.30;99.90;;;;;;5467794;26;20534;-76
2024/04/23 00:58:56;;;;;;;0.73;0.10;;;1.60;99.90;;;;;;5467120;26;20002;-76
2024/04/23 01:01:22;;;;;;;1.13;0.20;;;1.20;99.90;;;;;;5498678;26;20004;-76
2024/04/23 01:03:48;;;;;;;0.45;0.00;;;1.20;99.90;;;;;;5499245;26;19998;-76
2024/04/23 01:06:14;;;;;;;1.80;0.10;;;1.10;99.90;;;;;;5498581;26;20468;-76
2024/04/23 01:08:39;;;;;;;0.80;0.10;;;1.10;99.90;;;;;;5465662;26;19994;-76
2024/04/23 01:11:06;;;;;;;1.05;0.10;;;1.00;99.90;;;;;;5497958;26;19997;-76
2024/04/23 01:13:32;;;;;;;1.30;0.10;;;1.00;99.90;;;;;;5466517;26;20035;-76
2024/04/23 01:15:58;;;;;;;2.47;0.10;;;1.00;99.90;;;;;;5497932;26;20002;-76
2024/04/23 01:18:25;;;;;;;1.45;0.13;;;1.00;99.90;;;;;;5498347;26;19994;-76
2024/04/23 01:20:55;;;;;;;2.42;0.10;;;1.80;99.90;;;;;;5465768;26;20058;-76
2024/04/23 01:23:30;;;;;;;0.73;0.10;;;0.90;99.90;;;;;;5466283;26;20005;-76
2024/04/23 01:26:06;;;;;;;3.67;0.30;;;0.90;99.90;;;;;;5497981;26;20385;-76
2024/04/23 01:28:33;;;;;;;1.23;0.25;;;0.90;99.90;;;;;;5466145;26;19998;-76
2024/04/23 01:30:59;;;;;;;0.50;0.13;;;0.90;99.90;;;;;;5495852;26;19998;-76
2024/04/23 01:33:30;;;;;;;2.33;0.10;;;;;;;;;;5498157;26;20456;-76
2024/04/23 01:35:56;;;;;;;4.07;0.82;;;;;;;;;;5527384;26;19998;-76
2024/04/23 01:38:22;;;;;;;2.08;0.32;;;0.80;99.90;;;;;;5525444;26;20022;-77
2024/04/23 01:40:48;;;;;;;0.90;0.17;;;0.80;99.90;;;;;;5465155;26;20018;-77
2024/04/23 01:43:14;;;;;;;4.13;0.20;;;0.80;99.90;;;;;;5495996;26;20005;-77
2024/04/23 01:45:40;;;;;;;2.80;0.15;;;0.80;99.90;;;;;;5496403;26;19998;-77
2024/04/23 01:48:08;;;;;;;1.35;0.28;;;0.80;99.90;;;;;;5496558;26;19990;-76
2024/04/23 01:50:34;;;;;;;2.00;0.10;;;0.80;99.90;;;;;;5497161;26;19994;-76
2024/04/23 01:53:00;;;;;;;3.22;0.10;;;0.80;99.90;;;;;;5496947;26;20231;-76
2024/04/23 01:55:26;;;;;;;2.20;0.10;;;0.80;99.90;;;;;;5496990;26;20454;-76
2024/04/23 01:57:51;;;;;;;0.47;0.20;;;0.70;99.90;;;;;;5496998;26;19995;-76
2024/04/23 02:00:19;;;;;;;4.93;0.65;;;0.80;99.90;;;;;;5496701;26;20047;-76
2024/04/23 02:02:46;;;;;;;1.95;0.25;;;0.70;99.90;;;;;;5496887;26;19994;-76
2024/04/23 02:05:14;;;;;;;1.42;0.20;;;1.80;99.90;;;;;;5495952;26;20013;-77
2024/04/23 02:07:41;;;;;;;3.05;0.70;;;0.80;99.90;;;;;;5496031;26;19994;-77
2024/04/23 02:10:07;;;;;;;2.47;0.20;;;0.70;99.90;;;;;;5464895;26;20009;-77
2024/04/23 02:12:32;;;;;;;0.93;0.20;;;0.70;99.90;;;;;;5496323;26;19998;-77
2024/04/23 02:14:58;;;;;;;2.05;0.13;;;0.50;99.90;;;;;;5497372;26;20005;-77
2024/04/23 02:17:24;;;;;;;3.20;0.30;;;0.50;99.90;;;;;;5496981;26;20002;-77
2024/04/23 02:19:49;;;;;;;2.35;0.32;;;0.40;99.90;;;;;;5465446;26;20062;-76
2024/04/23 02:22:15;;;;;;;0.70;0.10;;;0.40;99.90;;;;;;5464168;26;19994;-76
2024/04/23 02:24:40;;;;;;;3.63;0.28;;;0.30;99.90;;;;;;5463987;26;20033;-76
2024/04/23 02:27:07;;;;;;;3.13;0.20;;;0.30;99.90;;;;;;5463828;26;20066;-76
2024/04/23 02:29:33;;;;;;;5.32;0.30;;;0.30;99.90;;;;;;5495797;26;20334;-77
2024/04/23 02:32:03;;;;;;;0.73;0.13;;;0.30;99.90;;;;;;5464241;26;20043;-77
2024/04/23 02:34:29;;;;;;;1.10;0.13;;;0.20;99.90;;;;;;5495831;26;20456;-77
2024/04/23 02:36:55;;;;;;;1.90;0.20;;;0.20;99.90;;;;;;5495443;26;19994;-77
2024/04/23 02:39:21;;;;;;;1.92;0.38;;;0.20;99.90;;;;;;5463504;26;20116;-77
2024/04/23 02:41:52;;;;;;;0.40;0.10;;;0.20;99.90;;;;;;5495592;26;20445;-77
2024/04/23 02:44:17;;;;;;;3.45;0.32;;;0.20;99.90;;;;;;5494637;26;20006;-77
2024/04/23 02:46:43;;;;;;;3.42;0.30;;;0.10;99.90;;;;;;5495588;26;19994;-77
2024/04/23 02:49:09;;;;;;;2.03;0.10;;;1.10;99.90;;;;;;5463761;26;19998;-77
2024/04/23 02:51:34;;;;;;;0.47;0.10;;;0.10;99.90;;;;;;5464686;26;20341;-77
2024/04/23 02:54:00;;;;;;;1.73;0.40;;;1.40;99.90;;;;;;5497120;26;20472;-77
2024/04/23 02:56:26;;;;;;;2.15;0.30;;;3.20;99.90;;;;;;5496694;26;20002;-77
2024/04/23 02:58:52;;;;;;;1.25;0.28;;;0.10;99.90;;;;;;5464002;26;20070;-77
2024/04/23 03:01:18;;;;;;;1.92;0.43;;;0.10;99.90;;;;;;5495584;26;20005;-77
2024/04/23 03:03:43;;;;;;;1.83;0.30;;;0.10;99.90;;;;;;5463035;26;19990;-77
2024/04/23 03:06:09;;;;;;;5.47;0.47;;;2.00;99.90;;;;;;5496353;26;19998;-77
2024/04/23 03:08:35;;;;;;;1.25;0.20;;;0.10;99.90;;;;;;5463892;26;20005;-77
2024/04/23 03:11:01;;;;;;;5.40;0.65;;;0.10;99.90;;;;;;5495500;26;20071;-77
2024/04/23 03:13:26;;;;;;;0.73;0.28;;;0.10;99.90;;;;;;5463745;26;19998;-77
2024/04/23 03:15:52;;;;;;;1.08;0.20;;;0.10;99.90;;;;;;5496675;26;20000;-77
2024/04/23 03:18:17;;;;;;;0.93;0.17;;;0.00;99.90;;;;;;5462755;26;19998;-77
2024/04/23 03:20:43;;;;;;;4.80;0.80;;;0.00;99.90;;;;;;5462234;26;19994;-77
2024/04/23 03:23:09;;;;;;;1.23;0.20;;;0.00;99.90;;;;;;5462561;26;19994;-77
2024/04/23 03:25:34;;;;;;;2.20;0.22;;;0.00;99.90;;;;;;5462564;26;20457;-77
2024/04/23 03:28:01;;;;;;;4.13;0.20;;;0.00;99.90;;;;;;5494804;26;20079;-77
2024/04/23 03:30:26;;;;;;;0.82;0.15;;;-0.10;99.90;;;;;;5462683;26;19998;-77
2024/04/23 03:32:52;;;;;;;1.52;0.28;;;-0.10;99.90;;;;;;5462337;26;19990;-77
2024/04/23 03:35:17;;;;;;;3.22;0.65;;;-0.10;99.90;;;;;;5462286;26;19991;-77
2024/04/23 03:37:43;;;;;;;1.27;0.38;;;-0.10;99.90;;;;;;5495551;26;20009;-77
2024/04/23 03:40:09;;;;;;;2.67;0.30;;;-0.10;99.90;;;;;;5470391;26;20001;-76
2024/04/23 03:42:34;;;;;;;2.13;0.28;;;-0.10;99.90;;;;;;5469962;26;20009;-77
2024/04/23 03:45:00;;;;;;;1.30;0.15;;;0.60;99.90;;;;;;5470716;26;20005;-77
2024/04/23 03:47:25;;;;;;;3.22;0.30;;;-0.20;99.90;;;;;;5502011;26;20480;-77
2024/04/23 03:49:51;;;;;;;1.45;0.40;;;-0.20;99.90;;;;;;5470143;26;20328;-76
2024/04/23 03:52:18;;;;;;;1.88;0.47;;;-0.20;99.90;;;;;;5469024;26;20005;-77
2024/04/23 03:54:44;;;;;;;4.68;0.50;;;-0.30;99.90;;;;;;5501434;26;20038;-77
2024/04/23 03:57:10;;;;;;;2.85;0.60;;;-0.30;99.90;;;;;;5501668;26;20022;-77
2024/04/23 03:59:36;;;;;;;3.55;0.40;;;-0.30;99.90;;;;;;5468388;26;20477;-77
2024/04/23 04:07:30;;;;;;;2.72;0.20;;;-0.30;99.90;;;;;;5501779;26;20471;-77
2024/04/23 04:09:55;;;;;;;1.25;0.20;;;-0.30;99.90;;;;;;5501524;26;19998;-77
2024/04/23 04:12:21;;;;;;;1.80;0.40;;;-0.30;99.90;;;;;;5469231;26;20006;-77
2024/04/23 04:14:47;;;;;;;3.08;0.55;;;-0.30;99.90;;;;;;5502029;26;20550;-77
2024/04/23 04:17:12;;;;;;;2.08;0.60;;;-0.30;99.90;;;;;;5500802;26;20010;-77
2024/04/23 04:19:40;;;;;;;2.40;0.45;;;-0.40;99.90;;;;;;5501600;26;20009;-77
2024/04/23 04:22:06;;;;;;;3.60;0.50;;;-0.40;99.90;;;;;;5501858;26;20018;-77
2024/04/23 04:24:32;;;;;;;3.47;0.57;;;-0.40;99.90;;;;;;5500680;26;20006;-77
2024/04/23 04:26:57;;;;;;;2.28;0.43;;;-0.40;99.90;;;;;;5468565;26;19994;-77
2024/04/23 04:29:23;;;;;;;2.92;0.30;;;-0.40;99.90;;;;;;5501494;26;19994;-77
2024/04/23 04:31:48;;;;;;;2.80;0.40;;;-0.40;99.90;;;;;;5501288;26;20009;-77
2024/04/23 04:34:14;;;;;;;2.88;0.30;;;-0.40;99.90;;;;;;5501249;26;20066;-77
2024/04/23 04:36:40;;;;;;;1.45;0.47;;;-0.40;99.90;;;;;;5500980;26;19994;-77
2024/04/23 04:39:05;;;;;;;1.95;0.40;;;-0.40;99.90;;;;;;5468973;26;20004;-77
2024/04/23 04:41:31;;;;;;;1.52;0.55;;;-0.30;99.90;;;;;;5468632;26;19991;-77
2024/04/23 04:43:56;;;;;;;1.85;0.50;;;-0.40;99.90;;;;;;5501235;26;20090;-77
2024/04/23 04:46:22;;;;;;;2.47;0.50;;;-0.30;99.90;;;;;;5468906;26;19994;-77
2024/04/23 04:48:48;;;;;;;4.70;0.80;;;-0.30;99.90;;;;;;5500196;26;20001;-77
2024/04/23 04:51:13;;;;;;;2.10;0.75;;;-0.30;99.90;;;;;;5496380;26;20002;-77
2024/04/23 04:53:39;;;;;;;2.65;0.20;;;-0.30;99.90;;;;;;5464383;26;20066;-77
2024/04/23 04:56:06;;;;;;;4.75;0.60;;;-0.30;99.90;;;;;;5497370;26;20010;-77
2024/04/23 04:58:33;;;;;;;1.75;0.60;;;;;;;;;;5464020;26;20026;-77
2024/04/23 05:01:02;;;;;;;1.42;0.40;;;-0.30;99.90;;;;;;5525559;26;20077;-77
2024/04/23 05:03:31;;;;;;;3.53;0.60;;;-0.20;99.90;;;;;;5497274;26;19994;-77
2024/04/23 05:05:56;;;;;;;1.65;0.40;;;-0.20;99.90;;;;;;5497734;26;19994;-76
2024/04/23 05:08:22;;;;;;;2.03;0.40;;;0.00;99.90;;;;;;5496462;26;20039;-76
2024/04/23 05:10:47;;;;;;;2.05;0.63;;;0.10;99.90;;;;;;5496957;26;20001;-76
2024/04/23 05:13:13;;;;;;;2.22;0.65;;;0.20;99.90;;;;;;5496767;26;19998;-76
2024/04/23 05:15:39;;;;;;;3.88;0.70;;;0.40;99.90;;;;;;5464847;26;20465;-76
2024/04/23 05:18:04;;;;;;;2.85;0.93;;;0.40;99.90;;;;;;5465042;26;19994;-74
2024/04/23 05:20:30;;;;;;;2.33;0.88;;;0.50;99.90;;;;;;5496634;26;19998;-76
2024/04/23 05:22:56;;;;;;;1.77;0.52;;;0.70;99.90;;;;;;5464451;26;20001;-76
2024/04/23 05:25:21;;;;;;;3.25;1.08;;;0.70;99.90;;;;;;5496364;26;20050;-76
2024/04/23 05:27:47;;;;;;;3.38;1.05;;;0.80;99.90;;;;;;5464012;26;20008;-76
2024/04/23 05:32:46;;;;;;;3.35;1.17;;;0.80;99.90;;;;;;5465455;26;19998;-74
2024/04/23 05:32:58;;;;;;;7.75;1.08;;;0.90;99.90;;;;;;5495502;26;20001;-74
2024/04/23 05:35:24;;;;;;;6.55;1.17;;;1.10;99.90;;;;;;5465606;26;20009;-74
2024/04/23 05:37:50;;;;;;;3.60;1.50;;;1.20;99.90;;;;;;5465464;26;20006;-75
2024/04/23 05:40:15;;;;;;;7.40;1.33;;;1.20;99.90;;;;;;5496542;26;19998;-75
2024/04/23 05:42:41;;;;;;;6.45;1.25;;;1.60;99.90;;;;;;5497344;26;20011;-75
2024/04/23 05:45:06;;;;;;;3.05;1.25;;;1.60;99.90;;;;;;5496014;26;20006;-75
2024/04/23 05:47:51;;;;;;;4.70;1.65;;;1.70;99.90;;;;;;5463338;26;19994;-75
2024/04/23 05:50:54;;;;;;;5.10;1.50;;;1.90;99.90;;;;;;5494278;26;20002;-75
2024/04/23 05:53:58;;;;;;;5.15;1.83;;;2.00;99.90;;;;;;5496056;26;19994;-74
2024/04/23 05:56:23;;;;;;;5.05;1.70;;;2.20;99.90;;;;;;5494145;26;19998;-74
2024/04/23 05:58:49;;;;;;;6.45;1.63;;;2.40;99.90;;;;;;5496006;26;20009;-77
2024/04/23 06:01:15;;;;;;;7.15;1.38;;;2.50;99.90;;;;;;5495492;26;20411;-74
2024/04/23 06:03:41;;;;;;;5.05;1.75;;;2.70;99.90;;;;;;5496445;26;20008;-74
2024/04/23 06:06:06;;;;;;;4.97;2.00;;;2.80;99.90;;;;;;5496352;26;19994;-75
2024/04/23 06:08:32;;;;;;;4.60;1.85;;;3.00;99.90;;;;;;5463181;26;19994;-75
2024/04/23 06:10:58;;;;;;;9.30;2.17;;;3.30;99.90;;;;;;5462801;26;20533;-75
2024/04/23 06:13:24;;;;;;;7.70;2.63;;;3.30;99.90;;;;;;5494919;26;20013;-75
2024/04/23 06:15:49;;;;;;;5.50;2.33;;;3.40;99.90;;;;;;5462793;26;20005;-75
2024/04/23 06:18:22;;;;;;;8.27;2.90;;;3.50;99.90;;;;;;5464111;26;20454;-75
2024/04/23 06:20:50;;;;;;;8.73;2.80;;;4.20;99.90;;;;;;5463004;26;20030;-75
2024/04/23 06:23:18;;;;;;;;;;;3.80;99.90;;;;;;5462972;26;20002;-75
2024/04/23 06:25:44;;;;;;;6.20;2.33;;;4.00;99.90;;;;;;5493320;26;19931;-75
2024/04/23 06:28:10;;;;;;;8.07;2.65;;;4.20;99.90;;;;;;5493797;26;19990;-76
2024/04/23 06:30:35;;;;;;;10.85;3.05;;;4.30;99.90;;;;;;5462656;26;19986;-74
2024/04/23 06:33:01;;;;;;;5.05;2.38;;;;;;;;;;5460845;26;19986;-75
2024/04/23 06:35:27;;;;;;;10.00;2.72;;;4.50;99.90;;;;;;5493226;26;19990;-75
2024/04/23 06:37:53;;;;;;;9.63;4.40;;;4.70;99.90;;;;;;5492802;26;20485;-76
2024/04/23 06:40:19;;;;;;;8.45;3.15;;;4.80;99.90;;;;;;5460613;26;19997;-76
2024/04/23 06:42:44;;;;;;;6.28;2.45;;;4.90;99.90;;;;;;5460272;26;20339;-76
2024/04/23 06:45:10;;;;;;;8.10;3.45;;;5.10;99.90;;;;;;5493116;26;20002;-76
2024/04/23 06:47:37;;;;;;;11.18;3.47;;;5.20;99.90;;;;;;5492426;26;19990;-77
2024/04/23 06:50:04;;;;;;;7.68;3.35;;;5.30;99.90;;;;;;5459869;26;20445;-75
2024/04/23 06:52:34;;;;;;;6.15;2.85;;;5.40;99.90;;;;;;5459363;26;19998;-77
2024/04/23 06:55:01;;;;;;;8.23;3.05;;;5.40;99.90;;;;;;5492308;26;20014;-76
2024/04/23 06:57:28;;;;;;;7.75;3.40;;;;;;;;;;5460231;26;20026;-75
2024/04/23 06:59:53;;;;;;;8.68;3.05;;;5.70;99.90;;;;;;5491822;26;20009;-76
2024/04/23 07:02:19;;;;;;;7.25;2.72;;;7.30;99.90;;;;;;5491799;26;19998;-76
2024/04/23 07:04:44;;;;;;;5.43;3.00;;;6.10;99.90;;;;;;5459193;26;20039;-75
2024/04/23 07:07:10;;;;;;;7.88;2.33;;;6.20;99.90;;;;;;5491657;26;20010;-76
2024/04/23 07:09:36;;;;;;;5.47;2.38;;;6.20;99.90;;;;;;5459190;26;19998;-77
2024/04/23 07:12:01;;;;;;;5.03;2.33;;;7.00;99.90;;;;;;5490683;26;19998;-76
2024/04/23 07:14:27;;;;;;;6.00;2.20;;;6.50;99.90;;;;;;5490400;26;19994;-77
2024/04/23 07:16:53;;;;;;;6.00;2.17;;;6.80;99.90;;;;;;5458455;26;19994;-77
2024/04/23 07:19:18;;;;;;;4.97;2.28;;;6.70;99.90;;;;;;5490771;26;19998;-76
2024/04/23 07:21:44;;;;;;;4.32;1.80;;;6.90;99.90;;;;;;5458102;26;20453;-76
2024/04/23 07:24:10;;;;;;;4.45;1.85;;;7.00;99.90;;;;;;5490527;26;20407;-76
2024/04/23 07:26:35;;;;;;;4.75;1.50;;;7.20;99.90;;;;;;5458408;26;19991;-76
2024/04/23 07:29:01;;;;;;;2.78;1.30;;;7.90;99.90;;;;;;5489914;26;20043;-75
2024/04/23 07:31:26;;;;;;;3.60;1.38;;;7.40;99.90;;;;;;5490240;26;20457;-77
2024/04/23 07:33:52;;;;;;;3.17;1.02;;;7.40;99.90;;;;;;5490223;26;20070;-75
2024/04/23 07:36:18;;;;;;;2.75;1.10;;;7.50;99.90;;;;;;5489863;26;19994;-75
2024/04/23 07:38:43;;;;;;;2.78;1.20;;;7.70;99.90;;;;;;5458157;26;20009;-76
2024/04/23 07:41:09;;;;;;;3.00;1.00;;;7.80;99.90;;;;;;5490131;26;20005;-77
2024/04/23 07:43:35;;;;;;;3.10;1.23;;;7.90;99.90;;;;;;5457755;26;20005;-75
2024/04/23 07:46:00;;;;;;;4.20;0.75;;;7.80;99.90;;;;;;5489820;26;19994;-75
2024/04/23 07:48:26;;;;;;;3.15;0.90;;;8.00;99.90;;;;;;5489615;26;20529;-75
2024/04/23 07:50:51;;;;;;;1.58;0.68;;;8.10;99.90;;;;;;5457633;26;19998;-75
2024/04/23 07:53:17;;;;;;;1.90;0.60;;;8.30;99.90;;;;;;5489939;26;20005;-75
2024/04/23 07:55:43;;;;;;;2.80;0.57;;;8.40;99.90;;;;;;5490012;26;20002;-76
2024/04/23 07:58:08;;;;;;;3.28;0.38;;;8.40;99.90;;;;;;5489738;26;19994;-77
2024/04/23 08:00:34;;;;;;;1.92;0.90;;;8.50;99.90;;;;;;5457345;26;20009;-75
2024/04/23 08:03:02;;;;;;;3.72;0.77;;;8.50;99.90;;;;;;5489631;26;19994;-75
2024/04/23 08:05:28;;;;;;;4.10;0.50;;;8.60;99.90;;;;;;5489669;26;19998;-75
2024/04/23 08:07:53;;;;;;;4.40;0.52;;;8.80;99.90;;;;;;5489581;26;19998;-75
2024/04/23 08:10:19;;;;;;;1.65;0.22;;;9.00;99.90;;;;;;5489938;26;19998;-75
2024/04/23 08:12:46;;;;;;;2.80;0.52;;;9.00;99.90;;;;;;5489205;26;20465;-75
2024/04/23 08:15:11;;;;;;;1.40;0.25;;;9.10;99.90;;;;;;5489112;26;20009;-75
2024/04/23 08:17:37;;;;;;;0.85;0.20;;;9.30;99.90;;;;;;5456879;26;19990;-76
2024/04/23 08:20:04;;;;;;;2.92;0.40;;;9.30;99.90;;;;;;5457242;26;20341;-75
2024/04/23 08:22:30;;;;;;;2.38;0.30;;;9.40;99.20;;;;;;5489029;26;20427;-76
2024/04/23 08:24:56;;;;;;;2.58;0.32;;;9.60;97.50;;;;;;5491215;26;20005;-75
2024/04/23 08:27:21;;;;;;;2.53;0.30;;;9.60;97.70;;;;;;5492944;26;20442;-76
2024/04/23 08:29:47;;;;;;;0.68;0.25;;;9.90;99.10;;;;;;5493045;26;20032;-76
2024/04/23 08:32:13;;;;;;;2.42;0.57;;;10.20;98.70;;;;;;5493247;26;20006;-75
2024/04/23 08:34:39;;;;;;;2.13;0.60;;;10.20;96.80;;;;;;5493269;26;20010;-76
2024/04/23 08:37:08;;;;;;;1.83;0.22;;;10.10;96.30;;;;;;5460947;26;19994;-76
2024/04/23 08:39:34;;;;;;;2.35;0.52;;;10.10;96.90;;;;;;5460879;26;20026;-75
2024/04/23 08:42:01;;;;;;;1.67;0.50;;;10.30;98.50;;;;;;5460559;26;19997;-77
2024/04/23 08:44:30;;;;;;;1.60;0.47;;;10.20;96.10;;;;;;5492775;26;20002;-76
2024/04/23 08:46:56;;;;;;;1.40;0.40;;;10.50;96.30;;;;;;5460359;26;20329;-76
2024/04/23 08:49:23;;;;;;;1.88;0.20;;;10.60;96.40;;;;;;5460564;26;20014;-76
2024/04/23 08:51:49;;;;;;;0.60;0.20;;;10.60;94.50;;;;;;5493042;26;19998;-76
2024/04/23 08:54:15;;;;;;;0.60;0.20;;;10.60;95.00;;;;;;5493075;26;19994;-76
2024/04/23 08:56:45;;;;;;;1.00;0.30;;;10.60;93.30;;;;;;5492799;26;20001;-76
2024/04/23 08:59:13;;;;;;;5.47;0.38;;;10.50;93.40;;;;;;5492456;26;20092;-76
2024/04/23 09:01:40;;;;;;;0.73;0.00;;;10.50;94.90;;;;;;5492782;26;20006;-76
2024/04/23 09:04:06;;;;;;;0.68;0.50;;;10.60;95.30;;;;;;5492797;26;19997;-76
2024/04/23 09:06:34;;;;;;;3.72;0.30;;;10.70;95.30;;;;;;5460668;26;20009;-76
2024/04/23 09:09:00;;;;;;;0.52;0.15;;;11.10;92.90;;;;;;5492589;26;20009;-76
2024/04/23 09:11:27;;;;;;;1.42;0.05;;;11.10;92.90;;;;;;5492754;26;19998;-76
2024/04/23 09:13:53;;;;;;;3.55;0.22;;;11.20;91.70;;;;;;5492820;26;19998;-76
2024/04/23 09:16:19;;;;;;;1.77;0.40;;;11.10;91.50;;;;;;5492707;26;19994;-76
2024/04/23 09:18:45;;;;;;;1.98;0.10;;;10.80;93.10;;;;;;5492608;26;20352;-76
2024/04/23 09:21:10;;;;;;;1.65;0.22;;;11.00;93.70;;;;;;5460089;26;19999;-76
2024/04/23 09:23:36;;;;;;;1.55;0.60;;;10.50;91.10;;;;;;5492670;26;19994;-76
2024/04/23 09:26:09;;;;;;;2.10;0.30;;;10.60;92.90;;;;;;5492215;26;20125;-76
2024/04/23 09:28:35;;;;;;;2.25;0.38;;;10.70;93.00;;;;;;5492115;26;20001;-76
2024/04/23 09:31:01;;;;;;;1.10;0.00;;;10.70;90.80;;;;;;5460222;26;20005;-76
2024/04/23 09:33:29;;;;;;;1.88;0.20;;;10.80;91.00;;;;;;5460211;26;20442;-76
2024/04/23 09:36:04;;;;;;;1.27;0.20;;;10.70;89.90;;;;;;5459075;26;19994;-76
2024/04/23 09:38:38;;;;;;;1.42;0.10;;;10.60;90.40;;;;;;5491967;26;20009;-76
2024/04/23 09:41:05;;;;;;;0.98;0.30;;;10.50;90.00;;;;;;5460060;26;20333;-76
2024/04/23 09:43:31;;;;;;;0.47;0.10;;;10.40;91.30;;;;;;5459659;26;19994;-76
2024/04/23 09:45:56;;;;;;;0.47;0.00;;;10.90;91.00;;;;;;5491941;26;19994;-76
2024/04/23 09:48:52;;;;;;;1.25;0.20;;;10.90;90.60;;;;;;5459652;26;19994;-76
2024/04/23 09:51:19;;;;;;;1.55;0.30;;;11.00;90.10;;;;;;5488843;26;20068;-76
2024/04/23 09:53:45;;;;;;;0.50;0.00;;;11.10;90.50;;;;;;5459786;26;20066;-76
2024/04/23 09:56:12;;;;;;;2.08;0.10;;;11.20;88.50;;;;;;5491656;26;19990;-76
2024/04/23 09:58:39;;;;;;;1.85;0.15;;;11.00;84.50;;;;;;5491659;26;19994;-76
2024/04/23 10:01:06;;;;;;;1.23;0.17;;;11.10;86.20;;;;;;5491579;26;20005;-76
2024/04/23 10:03:34;;;;;;;0.30;0.10;;;10.90;87.10;;;;;;5459410;26;19994;-76
2024/04/23 10:06:07;;;;;;;2.85;0.10;;;10.80;85.90;;;;;;5459506;26;20450;-76
2024/04/23 10:08:44;;;;;;;1.08;0.20;;;11.10;90.50;;;;;;5491656;26;20030;-76
2024/04/23 10:11:10;;;;;;;1.45;0.50;;;11.30;84.50;;;;;;5492138;26;20010;-76
2024/04/23 10:13:41;;;;;;;2.08;0.20;;;11.40;84.00;;;;;;5459592;26;20005;-76
2024/04/23 10:16:24;;;;;;;0.40;0.10;;;11.40;83.50;;;;;;5459616;26;20343;-75
2024/04/23 10:18:54;;;;;;;0.63;0.30;;;11.50;84.20;;;;;;5491536;26;20026;-76
2024/04/23 10:21:28;;;;;;;0.30;0.10;;;11.50;81.80;;;;;;5459325;26;20062;-76
2024/04/23 10:23:57;;;;;;;4.68;0.15;;;11.50;83.30;;;;;;5491587;26;20333;-76
2024/04/23 10:26:24;;;;;;;0.30;0.10;;;11.50;78.50;;;;;;5491299;26;20005;-76
2024/04/23 10:28:51;;;;;;;0.65;0.00;;;11.50;81.00;;;;;;5491559;26;20009;-76
2024/04/23 10:31:18;;;;;;;0.75;0.10;;;11.50;79.90;;;;;;5491314;26;19994;-76
2024/04/23 10:33:47;;;;;;;0.63;0.00;;;11.90;78.90;;;;;;5490947;26;20001;-76
2024/04/23 10:36:14;;;;;;;0.35;0.10;;;11.90;78.00;;;;;;5458874;26;20025;-76
2024/04/23 10:38:43;;;;;;;0.52;0.00;;;12.00;79.40;;;;;;5458953;26;19991;-76
2024/04/23 10:41:11;;;;;;;0.38;0.00;;;11.90;74.30;;;;;;5458664;26;20002;-76
2024/04/23 10:43:38;;;;;;;1.65;0.00;;;11.90;74.50;;;;;;5490897;26;19998;-76
2024/04/23 10:46:05;;;;;;;0.47;0.10;;;11.90;79.50;;;;;;5490745;26;19994;-76
2024/04/23 10:48:36;;;;;;;1.85;0.40;;;12.20;76.00;;;;;;5488940;26;19997;-76
2024/04/23 10:51:02;;;;;;;1.55;0.00;;;12.40;76.20;;;;;;5491097;26;19998;-76
2024/04/23 10:53:33;;;;;;;0.38;0.25;;;12.70;79.50;;;;;;5490978;26;20353;-76
2024/04/23 10:55:59;;;;;;;2.92;0.57;;;13.00;78.60;;;;;;5458759;26;20071;-76
2024/04/23 10:58:25;;;;;;;0.30;0.00;;;;;;;;;;5490610;26;20001;-76
2024/04/23 11:01:01;;;;;;;0.80;0.20;;;12.90;74.30;;;;;;5488639;26;19990;-76
2024/04/23 11:03:30;;;;;;;0.28;0.10;;;13.00;77.80;;;;;;5490774;26;20005;-76
2024/04/23 11:05:57;;;;;;;0.65;0.20;;;13.20;80.80;;;;;;5490875;26;19998;-76
2024/04/23 11:08:24;;;;;;;2.45;0.40;;;13.40;80.90;;;;;;5490407;26;19998;-76
2024/04/23 11:11:19;;;;;;;2.28;0.40;;;13.50;85.20;;;;;;5490605;26;20004;-76
2024/04/23 11:13:55;;;;;;;0.63;0.55;;;13.70;83.20;;;;;;5458057;26;19994;-76
2024/04/23 11:16:20;;;;;;;0.73;0.20;;;13.90;83.00;;;;;;5490561;26;20334;-76
2024/04/23 11:18:53;;;;;;;0.98;0.30;;;14.00;82.10;;;;;;5458016;26;19990;-76
2024/04/23 11:21:25;;;;;;;1.88;0.32;;;14.20;82.10;;;;;;5490869;26;20005;-76
2024/04/23 11:23:52;;;;;;;2.00;0.20;;;14.20;77.20;;;;;;5490674;26;20001;-76
2024/04/23 11:26:22;;;;;;;0.70;0.10;;;14.10;76.70;;;;;;5458103;26;20004;-77
2024/04/23 11:28:49;;;;;;;0.30;0.10;;;14.30;75.70;;;;;;5458126;26;20026;-76
2024/04/23 11:31:15;;;;;;;1.05;0.32;;;14.60;77.30;;;;;;5457829;26;20476;-76
2024/04/23 11:33:41;;;;;;;0.73;0.45;;;14.80;74.60;;;;;;5490188;26;20006;-76
2024/04/23 11:36:08;;;;;;;1.05;0.10;;;15.00;74.30;;;;;;5490344;26;20469;-76
2024/04/23 11:38:42;;;;;;;1.02;0.13;;;14.80;73.60;;;;;;5458230;26;19998;-76
2024/04/23 11:41:09;;;;;;;0.75;0.30;;;14.80;72.10;;;;;;5490239;26;19998;-76
2024/04/23 11:43:35;;;;;;;0.40;0.20;;;14.70;71.60;;;;;;5458336;26;19998;-76
2024/04/23 11:46:01;;;;;;;0.70;0.10;;;14.60;70.60;;;;;;5457718;26;19995;-76
2024/04/23 11:48:27;;;;;;;1.23;0.17;;;14.40;72.10;;;;;;5489793;26;19999;-76
2024/04/23 11:50:54;;;;;;;1.35;0.30;;;14.20;78.00;;;;;;5490370;26;20001;-76
2024/04/23 11:53:22;;;;;;;1.77;0.55;;;14.20;81.50;;;;;;5457618;26;20342;-76
2024/04/23 11:55:48;;;;;;;2.22;0.70;;;14.40;77.20;;;;;;5490411;26;20005;-76
2024/04/23 11:58:13;;;;;;;2.47;0.63;;;14.40;79.90;;;;;;5457420;26;19998;-76
2024/04/23 12:00:41;;;;;;;1.80;0.47;;;14.50;78.40;;;;;;5493272;26;20002;-76
2024/04/23 12:03:08;;;;;;;0.60;0.30;;;14.70;79.80;;;;;;5493504;26;19994;-76
2024/04/23 12:05:35;;;;;;;2.38;0.47;;;14.90;78.60;;;;;;5461269;26;19994;-76
2024/04/23 12:08:01;;;;;;;0.70;0.28;;;14.90;77.00;;;;;;5493349;26;20005;-76
2024/04/23 12:10:32;;;;;;;5.13;0.70;;;15.00;77.50;;;;;;5460906;26;19991;-76
2024/04/23 12:12:58;;;;;;;1.92;0.40;;;14.90;78.60;;;;;;5493488;26;20002;-76
2024/04/23 12:15:25;;;;;;;1.13;0.40;;;14.90;81.70;;;;;;5460749;26;19994;-77
2024/04/23 12:17:51;;;;;;;1.05;0.68;;;15.20;79.60;;;;;;5460684;26;20009;-76
2024/04/23 12:20:17;;;;;;;1.23;0.30;;;15.30;75.50;;;;;;5461074;26;19995;-76
2024/04/23 12:22:44;;;;;;;0.70;0.40;;;15.40;76.30;;;;;;5461102;26;20005;-76
2024/04/23 12:25:17;;;;;;;1.65;0.55;;;15.20;76.70;;;;;;5493177;26;19994;-76
2024/04/23 12:27:48;;;;;;;1.33;0.38;;;15.20;78.90;;;;;;5492730;26;20467;-76
2024/04/23 12:30:15;;;;;;;1.30;0.70;;;15.30;78.30;;;;;;5493283;26;20014;-76
2024/04/23 12:32:42;;;;;;;1.15;0.30;;;15.50;71.80;;;;;;5492980;26;20077;-76
2024/04/23 12:35:08;;;;;;;1.58;0.40;;;15.50;72.20;;;;;;5493017;26;19994;-76
2024/04/23 12:37:34;;;;;;;1.48;0.52;;;14.40;75.80;;;;;;5492681;26;20070;-77
2024/04/23 12:40:07;;;;;;;2.80;0.38;;;14.60;76.30;;;;;;5492652;26;20022;-76
2024/04/23 12:42:33;;;;;;;3.38;0.90;;;14.60;73.80;;;;;;5493140;26;20040;-76
2024/04/23 12:44:58;;;;;;;1.08;0.35;;;14.60;79.60;;;;;;5460642;26;20033;-76
2024/04/23 12:47:24;;;;;;;1.60;0.60;;;14.90;80.90;;;;;;5492629;26;20006;-76
2024/04/23 12:49:50;;;;;;;3.95;0.60;;;15.00;75.00;;;;;;5460590;26;20464;-76
2024/04/23 12:52:15;;;;;;;1.67;0.40;;;15.00;73.80;;;;;;5492806;26;20006;-76
2024/04/23 12:54:41;;;;;;;3.20;0.40;;;14.80;75.10;;;;;;5494043;26;19994;-78
2024/04/23 12:57:08;;;;;;;0.95;0.40;;;14.70;77.20;;;;;;5463897;26;19990;-78
2024/04/23 12:59:37;;;;;;;2.22;0.80;;;14.90;76.20;;;;;;5463652;26;19994;-78
2024/04/23 13:02:12;;;;;;;2.08;0.85;;;15.00;74.30;;;;;;5464676;26;20449;-79